Time;durP1;ratioP1;P1;durP2;ratioP2;P2;SDS_P1;SDS_P2;PMS_P1;PMS_P2;Temp;Humidity;BMP_temperature;BMP_pressure;BME280_temperature;BME280_humidity;BME280_pressure;Samples;Min_cycle;Max_cycle;Signal;HPM_P1;HPM_P2
2023/06/17 00:02:01;;;;;;;9.80;7.45;;;19.40;61.00;;;;;;5038880;28;20033;-76
2023/06/17 00:04:27;;;;;;;13.40;7.93;;;19.40;61.00;;;;;;5038307;28;20062;-76
2023/06/17 00:06:53;;;;;;;13.75;9.02;;;19.50;60.80;;;;;;5034072;28;20445;-76
2023/06/17 00:09:20;;;;;;;11.85;8.40;;;19.50;60.70;;;;;;5040425;28;20025;-76
2023/06/17 00:11:46;;;;;;;12.23;8.68;;;19.30;61.10;;;;;;5039289;28;20037;-75
2023/06/17 00:14:11;;;;;;;10.85;7.47;;;19.30;61.30;;;;;;5034788;28;20044;-76
2023/06/17 00:16:43;;;;;;;10.50;7.78;;;19.30;61.50;;;;;;5045434;28;20056;-77
2023/06/17 00:19:15;;;;;;;10.55;7.55;;;19.40;61.60;;;;;;5043447;28;20060;-77
2023/06/17 00:21:41;;;;;;;12.02;7.90;;;19.40;61.30;;;;;;5042954;28;20483;-76
2023/06/17 00:24:06;;;;;;;10.68;8.13;;;19.40;61.20;;;;;;5045310;28;20032;-76
2023/06/17 00:26:32;;;;;;;11.43;8.30;;;19.50;61.10;;;;;;5030021;28;20445;-76
2023/06/17 00:28:57;;;;;;;12.43;8.50;;;19.50;61.10;;;;;;5035872;28;20025;-76
2023/06/17 00:31:23;;;;;;;14.60;8.60;;;19.50;61.10;;;;;;5041603;28;20081;-77
2023/06/17 00:33:49;;;;;;;10.30;8.05;;;19.50;61.00;;;;;;5041549;28;20504;-77
2023/06/17 00:36:15;;;;;;;12.02;8.70;;;19.40;61.10;;;;;;5039222;28;20088;-76
2023/06/17 00:38:41;;;;;;;11.75;7.88;;;19.50;61.30;;;;;;5041243;28;20273;-76
2023/06/17 00:41:06;;;;;;;12.48;8.95;;;19.50;61.40;;;;;;5044068;28;20504;-76
2023/06/17 00:43:32;;;;;;;11.18;9.20;;;19.50;61.40;;;;;;5036561;28;20033;-76
2023/06/17 00:45:58;;;;;;;14.02;9.38;;;19.40;61.50;;;;;;5040616;28;20056;-76
2023/06/17 00:48:24;;;;;;;12.40;9.50;;;19.30;61.70;;;;;;5040140;28;20488;-75
2023/06/17 00:50:51;;;;;;;13.38;8.93;;;19.10;62.30;;;;;;5042242;28;20036;-76
2023/06/17 00:53:17;;;;;;;11.55;8.63;;;19.10;62.60;;;;;;5042133;28;20072;-77
2023/06/17 00:55:44;;;;;;;12.73;8.85;;;19.10;62.70;;;;;;5040221;28;20482;-77
2023/06/17 00:58:11;;;;;;;11.75;8.70;;;19.10;62.80;;;;;;5037914;28;20045;-77
2023/06/17 01:00:37;;;;;;;13.73;9.85;;;19.10;63.00;;;;;;5041379;28;20024;-76
2023/06/17 01:03:02;;;;;;;14.40;9.73;;;19.00;63.00;;;;;;5040544;28;20048;-76
2023/06/17 01:05:28;;;;;;;12.30;9.93;;;19.00;63.00;;;;;;5040168;28;20052;-76
2023/06/17 01:08:16;;;;;;;14.30;9.57;;;19.10;63.20;;;;;;5034593;28;20044;-76
2023/06/17 01:10:56;;;;;;;10.98;9.00;;;19.10;63.20;;;;;;5037815;28;20033;-75
2023/06/17 01:13:23;;;;;;;12.55;9.43;;;19.00;63.30;;;;;;5037577;28;20498;-75
2023/06/17 01:15:50;;;;;;;13.68;9.68;;;19.00;63.50;;;;;;5035715;28;20481;-76
2023/06/17 01:18:20;;;;;;;16.13;9.40;;;19.00;63.60;;;;;;5036148;28;20029;-75
2023/06/17 01:20:51;;;;;;;12.55;8.85;;;19.00;63.60;;;;;;5025461;28;20037;-76
2023/06/17 01:23:21;;;;;;;13.98;9.77;;;19.00;63.70;;;;;;5033004;28;20041;-75
2023/06/17 01:25:46;;;;;;;12.52;9.18;;;19.00;63.50;;;;;;5033787;28;20029;-76
2023/06/17 01:28:16;;;;;;;12.88;9.27;;;19.00;63.50;;;;;;5037654;28;20044;-76
2023/06/17 01:30:43;;;;;;;11.45;8.88;;;19.00;63.50;;;;;;5044337;28;20063;-75
2023/06/17 01:33:11;;;;;;;12.60;9.77;;;19.00;63.60;;;;;;5039354;28;21015;-76
2023/06/17 01:35:40;;;;;;;13.18;9.07;;;19.00;63.60;;;;;;5041619;28;20021;-75
2023/06/17 01:38:20;;;;;;;13.35;9.50;;;18.90;63.80;;;;;;5042507;28;20040;-76
2023/06/17 01:40:51;;;;;;;15.00;10.20;;;18.90;64.00;;;;;;5044986;28;20545;-75
2023/06/17 01:43:17;;;;;;;15.27;10.90;;;18.80;64.00;;;;;;5043080;28;20037;-76
2023/06/17 01:45:45;;;;;;;13.38;9.27;;;18.80;64.00;;;;;;5042500;28;20025;-76
2023/06/17 01:48:11;;;;;;;14.00;9.60;;;18.70;64.30;;;;;;5037993;28;20115;-75
2023/06/17 01:50:37;;;;;;;12.48;8.95;;;18.70;64.40;;;;;;5026307;28;20455;-74
2023/06/17 01:53:02;;;;;;;14.70;10.05;;;18.70;64.60;;;;;;5043571;28;20058;-75
2023/06/17 01:55:28;;;;;;;16.08;10.80;;;18.60;64.50;;;;;;5032141;28;20036;-76
2023/06/17 01:57:54;;;;;;;12.43;10.15;;;18.60;64.50;;;;;;5043959;28;20120;-76
2023/06/17 02:00:19;;;;;;;13.30;10.65;;;18.60;64.80;;;;;;5036060;28;20478;-76
2023/06/17 02:02:46;;;;;;;12.85;10.57;;;18.60;64.90;;;;;;5038171;28;20121;-76
2023/06/17 02:05:12;;;;;;;12.30;10.25;;;18.60;65.10;;;;;;5040379;28;20669;-75
2023/06/17 02:07:38;;;;;;;14.70;10.77;;;18.50;65.30;;;;;;5035083;28;20045;-76
2023/06/17 02:10:04;;;;;;;15.52;10.10;;;18.50;65.60;;;;;;5043780;28;20047;-76
2023/06/17 02:12:30;;;;;;;13.15;10.75;;;18.40;65.70;;;;;;5033670;28;20078;-75
2023/06/17 02:14:56;;;;;;;13.68;10.55;;;18.40;65.70;;;;;;5040603;28;20044;-75
2023/06/17 02:17:23;;;;;;;13.80;11.18;;;18.40;65.80;;;;;;5034176;28;20037;-77
2023/06/17 02:19:49;;;;;;;14.55;11.65;;;18.30;65.90;;;;;;5042471;28;20025;-76
2023/06/17 02:22:15;;;;;;;16.25;12.25;;;18.30;66.10;;;;;;5041743;28;20039;-76
2023/06/17 02:24:40;;;;;;;14.68;10.90;;;18.10;66.40;;;;;;5044058;28;20024;-76
2023/06/17 02:27:06;;;;;;;17.00;11.75;;;18.10;66.70;;;;;;5043226;28;20088;-75
2023/06/17 02:29:32;;;;;;;13.45;11.45;;;18.10;66.90;;;;;;5040302;28;20056;-76
2023/06/17 02:31:58;;;;;;;16.55;11.75;;;18.10;66.80;;;;;;5037610;28;20037;-75
2023/06/17 02:34:23;;;;;;;13.32;11.05;;;18.10;66.90;;;;;;5029079;28;20056;-75
2023/06/17 02:36:49;;;;;;;13.95;11.10;;;18.10;66.90;;;;;;5030373;28;20410;-76
2023/06/17 02:39:15;;;;;;;14.27;10.82;;;18.00;66.70;;;;;;5043598;28;20029;-76
2023/06/17 02:41:41;;;;;;;15.88;11.32;;;18.10;66.50;;;;;;5036761;28;20151;-76
2023/06/17 02:44:07;;;;;;;14.55;10.85;;;18.10;66.40;;;;;;5037700;28;20055;-75
2023/06/17 02:46:32;;;;;;;17.00;12.10;;;18.00;66.50;;;;;;5033101;28;20496;-75
2023/06/17 02:48:58;;;;;;;14.57;12.10;;;17.90;66.60;;;;;;5034378;28;20029;-75
2023/06/17 02:51:24;;;;;;;15.07;10.82;;;17.80;67.00;;;;;;5039684;28;20525;-77
2023/06/17 02:53:50;;;;;;;13.48;11.60;;;17.80;66.90;;;;;;5032362;28;20565;-75
2023/06/17 02:56:16;;;;;;;15.32;11.82;;;17.70;67.00;;;;;;5031781;28;20885;-75
2023/06/17 02:58:43;;;;;;;15.25;11.52;;;17.70;67.50;;;;;;5041793;28;20359;-76
2023/06/17 03:01:11;;;;;;;14.88;11.90;;;17.60;67.50;;;;;;5038203;28;20470;-75
2023/06/17 03:03:37;;;;;;;14.05;10.88;;;17.50;67.90;;;;;;5038785;28;20446;-76
2023/06/17 03:06:06;;;;;;;14.50;10.77;;;17.50;67.90;;;;;;5040556;28;20078;-75
2023/06/17 03:08:36;;;;;;;14.98;11.20;;;17.50;67.90;;;;;;5036325;28;20018;-76
2023/06/17 03:11:02;;;;;;;13.38;10.02;;;17.60;67.70;;;;;;5040164;28;20029;-76
2023/06/17 03:13:28;;;;;;;15.55;10.50;;;17.60;67.70;;;;;;5042023;28;20064;-76
2023/06/17 03:15:55;;;;;;;13.98;10.80;;;17.60;67.60;;;;;;5040008;28;20025;-76
2023/06/17 03:18:21;;;;;;;15.57;11.75;;;17.60;67.30;;;;;;5037038;28;20056;-76
2023/06/17 03:20:49;;;;;;;18.65;11.90;;;17.60;67.10;;;;;;5030076;28;20476;-76
2023/06/17 03:23:15;;;;;;;12.68;10.82;;;17.70;67.00;;;;;;5038963;28;20041;-75
2023/06/17 03:25:41;;;;;;;14.32;11.13;;;17.70;66.80;;;;;;5042834;28;20050;-75
2023/06/17 03:28:07;;;;;;;13.07;10.70;;;17.60;66.60;;;;;;5041164;28;20071;-77
2023/06/17 03:30:33;;;;;;;14.02;11.40;;;17.60;66.40;;;;;;5041394;28;20069;-76
2023/06/17 03:32:58;;;;;;;14.55;11.60;;;17.60;66.30;;;;;;5040291;28;20099;-76
2023/06/17 03:35:24;;;;;;;13.82;11.32;;;17.60;66.30;;;;;;5028991;28;20033;-77
2023/06/17 03:37:50;;;;;;;13.82;11.20;;;17.50;66.60;;;;;;5037557;28;21668;-76
2023/06/17 03:40:16;;;;;;;13.02;11.52;;;17.40;66.50;;;;;;5033924;28;20474;-76
2023/06/17 03:42:42;;;;;;;15.13;12.13;;;17.50;66.50;;;;;;5031051;28;20048;-76
2023/06/17 03:45:08;;;;;;;18.63;12.68;;;17.40;66.60;;;;;;5024389;28;20389;-77
2023/06/17 03:47:34;;;;;;;15.50;11.05;;;17.40;66.30;;;;;;5040746;28;20056;-78
2023/06/17 03:50:00;;;;;;;17.08;11.65;;;17.50;66.00;;;;;;5036751;28;20044;-77
2023/06/17 03:52:25;;;;;;;14.38;10.73;;;17.60;66.00;;;;;;5037444;28;20065;-77
2023/06/17 03:54:52;;;;;;;13.90;11.32;;;17.60;65.80;;;;;;5038978;28;20398;-77
2023/06/17 03:57:18;;;;;;;13.48;11.13;;;17.60;65.60;;;;;;5039053;28;20371;-77
2023/06/17 03:59:43;;;;;;;14.80;11.73;;;17.80;65.20;;;;;;5037373;28;20064;-75
2023/06/17 04:02:10;;;;;;;14.60;11.40;;;17.80;64.90;;;;;;5036500;28;20100;-76
2023/06/17 04:04:36;;;;;;;11.70;10.13;;;17.80;64.60;;;;;;5037712;28;20029;-76
2023/06/17 04:07:02;;;;;;;12.18;9.50;;;17.90;64.50;;;;;;5033329;28;20192;-76
2023/06/17 04:09:29;;;;;;;14.07;10.48;;;17.80;64.60;;;;;;5036282;28;20482;-75
2023/06/17 04:11:54;;;;;;;13.82;10.43;;;17.90;64.30;;;;;;5037443;28;20044;-76
2023/06/17 04:14:20;;;;;;;13.77;10.57;;;17.80;64.30;;;;;;5038033;28;20046;-76
2023/06/17 04:16:45;;;;;;;14.02;11.00;;;17.90;64.60;;;;;;5038074;28;20048;-76
2023/06/17 04:19:13;;;;;;;15.05;11.95;;;17.90;64.60;;;;;;5038383;28;20518;-76
2023/06/17 04:21:42;;;;;;;14.23;10.70;;;17.90;64.50;;;;;;5039951;28;20048;-77
2023/06/17 04:24:07;;;;;;;15.43;10.93;;;17.90;64.50;;;;;;5038168;28;20025;-76
2023/06/17 04:26:33;;;;;;;13.88;10.98;;;18.00;64.60;;;;;;5033374;28;20433;-76
2023/06/17 04:29:02;;;;;;;14.40;11.35;;;18.00;64.70;;;;;;5035759;28;20041;-77
2023/06/17 04:31:27;;;;;;;14.50;11.68;;;18.10;64.60;;;;;;5029361;28;20139;-77
2023/06/17 04:33:54;;;;;;;14.05;10.80;;;18.10;64.80;;;;;;5039708;28;20500;-77
2023/06/17 04:36:21;;;;;;;15.75;10.57;;;18.20;64.70;;;;;;5037502;28;20124;-77
2023/06/17 04:38:50;;;;;;;15.60;10.55;;;18.30;64.40;;;;;;5035435;28;20397;-77
2023/06/17 04:41:16;;;;;;;16.45;11.65;;;18.40;64.10;;;;;;5042847;28;20108;-78
2023/06/17 04:43:48;;;;;;;12.43;10.43;;;18.50;63.80;;;;;;5039698;28;20121;-78
2023/06/17 04:46:16;;;;;;;17.00;11.27;;;18.60;63.70;;;;;;5039479;28;20128;-78
2023/06/17 04:48:43;;;;;;;19.27;12.35;;;18.70;62.90;;;;;;5041269;28;20541;-78
2023/06/17 04:51:09;;;;;;;18.88;11.48;;;18.80;63.00;;;;;;5042206;28;20033;-78
2023/06/17 04:53:38;;;;;;;18.45;11.32;;;18.90;62.30;;;;;;5043166;28;20028;-78
2023/06/17 04:56:06;;;;;;;18.60;11.15;;;19.00;62.00;;;;;;5037628;28;20529;-78
2023/06/17 04:58:32;;;;;;;18.10;12.30;;;19.10;60.80;;;;;;5039707;28;20031;-77
2023/06/17 05:00:58;;;;;;;20.60;11.73;;;19.10;60.30;;;;;;5041939;28;20055;-78
2023/06/17 05:03:24;;;;;;;19.60;11.15;;;19.10;60.60;;;;;;5039034;28;20505;-78
2023/06/17 05:05:51;;;;;;;13.60;10.25;;;19.20;60.70;;;;;;5043547;28;20037;-77
2023/06/17 05:08:16;;;;;;;16.33;10.82;;;19.60;59.90;;;;;;5039314;28;20511;-78
2023/06/17 05:10:42;;;;;;;21.15;10.25;;;20.60;57.30;;;;;;5041635;28;20033;-78
2023/06/17 05:13:08;;;;;;;15.82;9.20;;;21.60;53.90;;;;;;5032810;28;20366;-78
2023/06/17 05:15:33;;;;;;;15.25;9.65;;;22.60;50.70;;;;;;5033089;28;20041;-78
2023/06/17 05:17:59;;;;;;;13.88;9.55;;;23.30;47.90;;;;;;5043509;28;20360;-78
2023/06/17 05:20:24;;;;;;;12.55;9.40;;;22.80;48.60;;;;;;5030717;28;20029;-77
2023/06/17 05:22:50;;;;;;;13.52;9.82;;;22.70;49.00;;;;;;5035784;28;20064;-78
2023/06/17 05:25:16;;;;;;;16.48;9.23;;;23.40;47.20;;;;;;5026779;28;20147;-77
2023/06/17 05:27:42;;;;;;;17.55;8.85;;;22.90;47.50;;;;;;5042105;28;20391;-77
2023/06/17 05:30:08;;;;;;;15.60;10.07;;;22.60;48.90;;;;;;5037720;28;20086;-77
2023/06/17 05:32:34;;;;;;;13.55;9.70;;;23.00;47.90;;;;;;5042973;28;20044;-78
2023/06/17 05:34:59;;;;;;;11.52;9.13;;;23.60;45.90;;;;;;5034730;28;20017;-77
2023/06/17 05:37:25;;;;;;;11.93;9.07;;;24.10;44.80;;;;;;5041538;28;20072;-77
2023/06/17 05:39:50;;;;;;;12.65;8.77;;;24.60;43.60;;;;;;5043900;28;20025;-77
2023/06/17 05:42:16;;;;;;;16.05;9.18;;;25.10;42.60;;;;;;5040622;28;20039;-78
2023/06/17 05:44:42;;;;;;;16.05;8.63;;;25.20;42.10;;;;;;5042045;28;20535;-77
2023/06/17 05:47:08;;;;;;;11.73;8.48;;;25.40;41.50;;;;;;5033385;28;20064;-78
2023/06/17 05:49:33;;;;;;;12.30;9.05;;;25.30;42.00;;;;;;5033439;28;20036;-77
2023/06/17 05:51:59;;;;;;;14.60;9.48;;;25.00;42.60;;;;;;5035655;28;20057;-76
2023/06/17 05:54:25;;;;;;;13.00;9.15;;;24.90;42.90;;;;;;5033989;28;20021;-77
2023/06/17 05:56:50;;;;;;;14.43;9.07;;;24.60;43.00;;;;;;5039270;28;20029;-78
2023/06/17 05:59:16;;;;;;;14.68;8.80;;;23.70;45.10;;;;;;5041095;28;20028;-77
2023/06/17 06:01:42;;;;;;;12.52;8.70;;;23.40;45.90;;;;;;5032802;28;20034;-78
2023/06/17 06:04:07;;;;;;;13.25;8.68;;;23.00;46.40;;;;;;5039827;28;20060;-78
2023/06/17 06:06:33;;;;;;;11.73;8.07;;;22.60;47.20;;;;;;5037516;28;20114;-77
2023/06/17 06:08:59;;;;;;;13.00;8.93;;;22.40;47.80;;;;;;5035431;28;20032;-78
2023/06/17 06:11:25;;;;;;;10.98;8.38;;;22.30;47.80;;;;;;5040062;28;20453;-77
2023/06/17 06:13:51;;;;;;;16.23;9.27;;;22.20;48.20;;;;;;5044423;28;20076;-77
2023/06/17 06:16:16;;;;;;;14.23;8.18;;;22.20;48.50;;;;;;5040043;28;20032;-77
2023/06/17 06:18:42;;;;;;;11.13;8.65;;;22.20;48.80;;;;;;5040396;28;20032;-77
2023/06/17 06:21:08;;;;;;;15.75;9.15;;;22.40;49.10;;;;;;5040957;28;20045;-77
2023/06/17 06:23:35;;;;;;;12.68;9.07;;;22.60;48.10;;;;;;5039893;28;20311;-78
2023/06/17 06:26:01;;;;;;;15.73;8.88;;;22.60;48.40;;;;;;5037723;28;20029;-78
2023/06/17 06:28:27;;;;;;;11.48;7.72;;;22.80;47.40;;;;;;5030373;28;20469;-78
2023/06/17 06:30:52;;;;;;;11.73;8.20;;;22.90;47.00;;;;;;5035523;28;20489;-78
2023/06/17 06:33:18;;;;;;;14.00;8.60;;;23.00;46.60;;;;;;5030069;28;20020;-78
2023/06/17 06:35:43;;;;;;;11.30;7.65;;;23.10;46.70;;;;;;5044342;28;20020;-78
2023/06/17 06:38:09;;;;;;;12.88;8.63;;;23.40;46.80;;;;;;5039607;28;20421;-78
2023/06/17 06:40:35;;;;;;;14.50;8.98;;;23.50;46.10;;;;;;5025689;28;20099;-78
2023/06/17 06:43:00;;;;;;;25.77;19.83;;;23.50;46.20;;;;;;5036924;28;20373;-78
2023/06/17 06:45:26;;;;;;;16.13;11.73;;;23.50;46.80;;;;;;5035754;28;20033;-78
2023/06/17 06:47:52;;;;;;;15.25;10.05;;;23.40;47.00;;;;;;5035841;28;20048;-79
2023/06/17 06:50:17;;;;;;;20.00;11.57;;;23.30;46.60;;;;;;5036745;28;20022;-78
2023/06/17 06:52:43;;;;;;;15.07;9.43;;;23.40;46.60;;;;;;5039304;28;20136;-76
2023/06/17 06:55:09;;;;;;;17.50;10.90;;;23.40;46.70;;;;;;5038029;28;20439;-78
2023/06/17 06:57:34;;;;;;;16.75;9.77;;;23.50;47.00;;;;;;5039595;28;20522;-78
2023/06/17 07:00:00;;;;;;;14.63;10.38;;;23.70;46.40;;;;;;5038473;28;20457;-76
2023/06/17 07:02:25;;;;;;;27.38;16.85;;;23.90;46.20;;;;;;5039354;28;20036;-76
2023/06/17 07:04:52;;;;;;;19.08;12.10;;;24.10;46.10;;;;;;5040411;28;20435;-76
2023/06/17 07:07:17;;;;;;;14.13;8.10;;;24.30;44.80;;;;;;5041837;28;20049;-76
2023/06/17 07:09:43;;;;;;;13.05;7.72;;;24.40;43.20;;;;;;5041048;28;20025;-76
2023/06/17 07:12:10;;;;;;;10.88;7.28;;;24.50;43.60;;;;;;5041436;28;20480;-77
2023/06/17 07:14:35;;;;;;;12.38;8.27;;;24.50;43.50;;;;;;5043528;28;20041;-77
2023/06/17 07:17:01;;;;;;;14.15;8.32;;;24.50;42.80;;;;;;5027280;28;20091;-77
2023/06/17 07:19:27;;;;;;;11.00;8.27;;;24.50;43.50;;;;;;5038476;28;20052;-77
2023/06/17 07:21:52;;;;;;;12.95;7.97;;;24.80;43.30;;;;;;5032651;28;20295;-77
2023/06/17 07:24:18;;;;;;;10.95;6.53;;;25.10;43.20;;;;;;5034815;28;20374;-77
2023/06/17 07:26:44;;;;;;;9.75;6.97;;;25.40;43.00;;;;;;5040461;28;20065;-78
2023/06/17 07:29:09;;;;;;;11.18;6.68;;;25.50;42.90;;;;;;5031127;28;20024;-77
2023/06/17 07:31:35;;;;;;;11.82;7.07;;;25.80;41.70;;;;;;5025153;28;20161;-78
2023/06/17 07:34:01;;;;;;;10.27;7.72;;;26.00;41.90;;;;;;5030956;28;20033;-78
2023/06/17 07:36:26;;;;;;;9.52;6.80;;;26.10;41.30;;;;;;5032358;28;20042;-77
2023/06/17 07:38:52;;;;;;;9.25;6.95;;;26.20;41.20;;;;;;5036161;28;20037;-76
2023/06/17 07:41:18;;;;;;;11.25;7.20;;;26.20;41.50;;;;;;5032324;28;20048;-77
2023/06/17 07:43:44;;;;;;;10.63;7.47;;;26.40;40.90;;;;;;5043418;28;20013;-76
2023/06/17 07:46:09;;;;;;;11.45;7.22;;;26.60;40.70;;;;;;5035604;28;20037;-75
2023/06/17 07:48:35;;;;;;;11.60;7.38;;;26.70;40.50;;;;;;5038607;28;20025;-77
2023/06/17 07:51:01;;;;;;;11.25;6.82;;;26.90;40.40;;;;;;5037876;28;20535;-77
2023/06/17 07:53:27;;;;;;;11.52;7.53;;;26.60;39.70;;;;;;5034561;28;20040;-77
2023/06/17 07:55:53;;;;;;;10.85;6.85;;;26.60;40.10;;;;;;5035187;28;20025;-77
2023/06/17 07:58:19;;;;;;;10.75;7.20;;;26.60;40.00;;;;;;5037746;28;20082;-77
2023/06/17 08:00:45;;;;;;;10.80;7.10;;;26.50;40.30;;;;;;5035777;28;20028;-76
2023/06/17 08:03:12;;;;;;;10.25;6.88;;;26.80;39.80;;;;;;5032875;28;20037;-77
2023/06/17 08:05:37;;;;;;;11.45;7.25;;;27.00;40.20;;;;;;5042480;28;20120;-77
2023/06/17 08:08:03;;;;;;;10.73;7.18;;;27.20;38.80;;;;;;5033437;28;20955;-77
2023/06/17 08:10:29;;;;;;;8.57;6.47;;;27.20;38.90;;;;;;5039062;28;20277;-77
2023/06/17 08:12:54;;;;;;;10.90;7.00;;;27.20;39.00;;;;;;5037203;28;20472;-77
2023/06/17 08:15:21;;;;;;;11.85;6.78;;;27.40;38.80;;;;;;5037540;28;20412;-78
2023/06/17 08:17:48;;;;;;;8.63;6.30;;;27.50;38.70;;;;;;5025615;28;20053;-76
2023/06/17 08:20:15;;;;;;;11.25;7.03;;;27.70;37.40;;;;;;5029048;28;20465;-76
2023/06/17 08:22:41;;;;;;;9.88;6.68;;;27.80;38.00;;;;;;5043037;28;20202;-77
2023/06/17 08:25:07;;;;;;;10.00;6.95;;;28.00;37.80;;;;;;5038309;28;20080;-77
2023/06/17 08:27:33;;;;;;;13.57;7.70;;;27.80;37.00;;;;;;5037201;28;20056;-77
2023/06/17 08:29:59;;;;;;;10.30;6.78;;;27.40;38.30;;;;;;5038816;28;20485;-77
2023/06/17 08:32:25;;;;;;;11.93;7.43;;;27.50;38.70;;;;;;5042421;28;20052;-77
2023/06/17 08:34:50;;;;;;;11.40;7.20;;;27.50;39.30;;;;;;5033924;28;20029;-77
2023/06/17 08:37:16;;;;;;;13.05;7.15;;;27.60;38.50;;;;;;5028019;28;20034;-77
2023/06/17 08:39:42;;;;;;;12.38;6.85;;;27.70;37.70;;;;;;5038249;28;20036;-76
2023/06/17 08:42:09;;;;;;;10.30;7.05;;;28.00;37.20;;;;;;5042434;28;20045;-76
2023/06/17 08:44:38;;;;;;;10.35;6.70;;;28.10;37.90;;;;;;5030632;28;20081;-76
2023/06/17 08:47:05;;;;;;;13.52;6.72;;;28.00;37.50;;;;;;5035192;28;20045;-76
2023/06/17 08:49:31;;;;;;;10.02;6.35;;;28.10;37.50;;;;;;5040512;28;20022;-76
2023/06/17 08:51:59;;;;;;;11.00;6.72;;;28.30;37.80;;;;;;5042646;28;20044;-76
2023/06/17 08:54:27;;;;;;;10.35;6.72;;;28.50;37.50;;;;;;5045365;28;20033;-76
2023/06/17 08:56:53;;;;;;;9.63;7.03;;;28.60;36.50;;;;;;5032462;28;20142;-76
2023/06/17 08:59:20;;;;;;;9.88;6.53;;;28.60;36.90;;;;;;5038811;28;20029;-76
2023/06/17 09:01:47;;;;;;;11.07;6.75;;;28.60;36.60;;;;;;5036160;28;20595;-76
2023/06/17 09:04:14;;;;;;;11.50;6.88;;;28.50;37.10;;;;;;5043736;28;20029;-76
2023/06/17 09:06:39;;;;;;;13.45;7.20;;;28.40;37.60;;;;;;5039206;28;20095;-76
2023/06/17 09:09:05;;;;;;;10.40;5.93;;;28.30;37.10;;;;;;5041967;28;20026;-77
2023/06/17 09:11:32;;;;;;;11.95;6.93;;;28.50;37.00;;;;;;5033955;28;20094;-76
2023/06/17 09:13:59;;;;;;;14.52;7.28;;;28.40;37.40;;;;;;5037959;28;20041;-76
2023/06/17 09:16:31;;;;;;;9.80;6.03;;;28.40;37.80;;;;;;5034640;28;20033;-75
2023/06/17 09:19:01;;;;;;;10.63;6.88;;;28.70;37.40;;;;;;5032697;28;20025;-76
2023/06/17 09:21:27;;;;;;;10.63;7.03;;;28.90;37.60;;;;;;5036698;28;20180;-76
2023/06/17 09:23:56;;;;;;;12.23;6.97;;;28.70;37.70;;;;;;5036046;28;20060;-76
2023/06/17 09:26:29;;;;;;;10.18;6.18;;;29.00;36.10;;;;;;5035968;28;20041;-76
2023/06/17 09:29:06;;;;;;;10.75;6.07;;;29.30;36.10;;;;;;5040561;28;20599;-77
2023/06/17 09:31:33;;;;;;;9.82;6.63;;;29.60;35.40;;;;;;5035738;28;20179;-77
2023/06/17 09:34:03;;;;;;;10.73;5.90;;;29.70;35.40;;;;;;5041159;28;20470;-76
2023/06/17 09:36:29;;;;;;;11.27;6.75;;;29.80;35.80;;;;;;5035727;28;20070;-77
2023/06/17 09:38:55;;;;;;;9.65;6.50;;;29.70;35.30;;;;;;5032772;28;20029;-76
2023/06/17 09:41:23;;;;;;;10.30;6.60;;;29.80;35.50;;;;;;5042544;28;20490;-76
2023/06/17 09:43:52;;;;;;;10.13;6.15;;;29.80;34.80;;;;;;5042373;28;20021;-76
2023/06/17 09:46:29;;;;;;;14.07;7.53;;;29.80;35.60;;;;;;5035442;28;20160;-76
2023/06/17 09:48:59;;;;;;;8.65;6.20;;;29.80;35.50;;;;;;5037841;28;20109;-75
2023/06/17 09:51:25;;;;;;;14.65;6.32;;;29.80;35.70;;;;;;5039987;28;20045;-75
2023/06/17 09:53:52;;;;;;;11.88;6.80;;;29.80;35.30;;;;;;5037885;28;20048;-76
2023/06/17 09:56:19;;;;;;;9.95;5.72;;;29.90;35.40;;;;;;5030303;28;20033;-76
2023/06/17 09:58:45;;;;;;;12.02;6.40;;;29.80;35.50;;;;;;5029096;28;20025;-76
2023/06/17 10:01:11;;;;;;;9.60;6.20;;;29.80;34.60;;;;;;5036238;28;20415;-76
2023/06/17 10:03:39;;;;;;;10.38;5.72;;;29.70;35.10;;;;;;5036871;28;20031;-76
2023/06/17 10:06:10;;;;;;;13.10;6.15;;;29.80;35.20;;;;;;5040060;28;20079;-76
2023/06/17 10:08:48;;;;;;;9.02;6.07;;;29.80;34.50;;;;;;5041134;28;20017;-76
2023/06/17 10:11:18;;;;;;;9.85;6.32;;;30.00;33.90;;;;;;5029807;28;20041;-76
2023/06/17 10:13:47;;;;;;;8.98;6.45;;;30.20;34.80;;;;;;5029659;28;20188;-76
2023/06/17 10:16:18;;;;;;;9.70;7.47;;;30.10;35.20;;;;;;5038913;28;20748;-76
2023/06/17 10:18:47;;;;;;;11.75;7.57;;;30.10;35.40;;;;;;5032173;28;21068;-76
2023/06/17 10:21:13;;;;;;;8.80;6.43;;;30.30;34.20;;;;;;5041389;28;20113;-77
2023/06/17 10:23:42;;;;;;;10.07;6.45;;;30.40;34.30;;;;;;5040858;28;20029;-76
2023/06/17 10:26:10;;;;;;;12.65;8.43;;;30.50;34.70;;;;;;5038692;28;20033;-76
2023/06/17 10:28:56;;;;;;;8.48;6.15;;;30.50;35.10;;;;;;5043139;28;20112;-77
2023/06/17 10:31:23;;;;;;;9.55;6.43;;;30.40;34.50;;;;;;5039352;28;20124;-77
2023/06/17 10:33:49;;;;;;;8.93;6.05;;;30.40;33.70;;;;;;5042218;28;20031;-77
2023/06/17 10:36:15;;;;;;;12.00;6.25;;;30.30;34.50;;;;;;5043759;28;20044;-77
2023/06/17 10:38:40;;;;;;;10.05;6.03;;;30.40;35.00;;;;;;5038748;28;20018;-76
2023/06/17 10:41:06;;;;;;;10.88;6.18;;;30.50;35.80;;;;;;5035318;28;20079;-77
2023/06/17 10:43:37;;;;;;;10.38;5.93;;;30.90;34.50;;;;;;5033177;28;20040;-76
2023/06/17 10:46:02;;;;;;;9.20;5.70;;;30.90;33.50;;;;;;5030209;28;20029;-76
2023/06/17 10:48:29;;;;;;;8.98;6.10;;;30.70;33.40;;;;;;5034803;28;20110;-76
2023/06/17 10:51:01;;;;;;;7.85;5.75;;;31.00;33.10;;;;;;5029735;28;20055;-76
2023/06/17 10:53:32;;;;;;;10.38;6.38;;;30.90;33.30;;;;;;5030991;28;20029;-78
2023/06/17 10:56:01;;;;;;;9.60;6.15;;;30.80;34.00;;;;;;5030909;28;20054;-78
2023/06/17 10:58:46;;;;;;;8.98;6.32;;;30.80;33.60;;;;;;5032763;28;20029;-78
2023/06/17 11:01:12;;;;;;;11.85;6.45;;;30.80;33.50;;;;;;5034865;28;20393;-76
2023/06/17 11:03:38;;;;;;;7.55;5.57;;;30.80;34.40;;;;;;5032343;28;20462;-76
2023/06/17 11:06:05;;;;;;;8.77;5.80;;;30.90;34.30;;;;;;5026126;28;20087;-77
2023/06/17 11:08:33;;;;;;;9.63;6.10;;;30.70;34.70;;;;;;5029786;28;20025;-77
2023/06/17 11:11:14;;;;;;;11.52;6.00;;;30.50;34.10;;;;;;5027080;28;20044;-77
2023/06/17 11:13:53;;;;;;;10.60;5.80;;;30.40;34.20;;;;;;5031654;28;20048;-76
2023/06/17 11:16:18;;;;;;;9.15;5.55;;;30.30;34.60;;;;;;5030468;28;20048;-76
2023/06/17 11:18:45;;;;;;;10.70;5.90;;;30.50;34.30;;;;;;5028129;28;20123;-76
2023/06/17 11:21:11;;;;;;;11.27;6.20;;;30.60;34.50;;;;;;5029694;28;20422;-76
2023/06/17 11:23:38;;;;;;;8.13;5.50;;;30.80;34.50;;;;;;5033307;28;20025;-76
2023/06/17 11:26:05;;;;;;;10.15;5.95;;;30.80;33.90;;;;;;5035005;28;20029;-77
2023/06/17 11:28:31;;;;;;;11.65;6.57;;;30.70;33.60;;;;;;5037809;28;20033;-76
2023/06/17 11:30:57;;;;;;;10.30;6.38;;;30.70;33.70;;;;;;5033730;28;20024;-77
2023/06/17 11:33:23;;;;;;;7.88;5.38;;;31.00;32.90;;;;;;5036396;28;20029;-77
2023/06/17 11:35:52;;;;;;;7.95;5.60;;;31.10;32.50;;;;;;5037293;28;20128;-76
2023/06/17 11:38:18;;;;;;;10.30;5.68;;;31.00;32.60;;;;;;5030695;28;20022;-77
2023/06/17 11:40:44;;;;;;;10.82;5.60;;;31.10;32.40;;;;;;5036478;28;20025;-76
2023/06/17 11:43:10;;;;;;;9.85;5.70;;;31.50;32.10;;;;;;5040897;28;20525;-76
2023/06/17 11:45:37;;;;;;;8.48;5.60;;;31.60;31.20;;;;;;5032560;28;20033;-77
2023/06/17 11:48:05;;;;;;;9.25;5.32;;;31.80;31.50;;;;;;5033567;28;20115;-77
2023/06/17 11:50:31;;;;;;;10.43;5.65;;;31.90;30.80;;;;;;5037203;28;20036;-77
2023/06/17 11:52:57;;;;;;;9.05;6.40;;;31.90;31.30;;;;;;5029520;28;20029;-76
2023/06/17 11:55:43;;;;;;;9.30;5.68;;;32.10;30.70;;;;;;5038933;28;20315;-77
2023/06/17 11:58:09;;;;;;;9.90;5.32;;;32.00;31.40;;;;;;5029387;28;20040;-76
2023/06/17 12:00:37;;;;;;;10.88;6.05;;;32.00;31.10;;;;;;5035492;28;20032;-76
2023/06/17 12:03:03;;;;;;;8.85;5.55;;;32.20;31.40;;;;;;5039142;28;20037;-78
2023/06/17 12:05:29;;;;;;;11.25;5.32;;;32.20;31.30;;;;;;5041507;28;20203;-77
2023/06/17 12:08:02;;;;;;;12.10;5.53;;;32.30;30.90;;;;;;5038715;28;20513;-76
2023/06/17 12:10:27;;;;;;;9.63;5.15;;;32.20;30.90;;;;;;5036775;28;20586;-76
2023/06/17 12:12:58;;;;;;;9.32;4.78;;;32.30;30.30;;;;;;5041791;28;20037;-76
2023/06/17 12:15:30;;;;;;;7.53;4.70;;;32.10;29.10;;;;;;5039163;28;20048;-76
2023/06/17 12:18:09;;;;;;;7.20;4.50;;;32.30;28.70;;;;;;5037967;28;20052;-76
2023/06/17 12:20:36;;;;;;;7.13;4.82;;;32.50;28.00;;;;;;5037142;28;20028;-75
2023/06/17 12:23:02;;;;;;;8.52;5.15;;;32.50;28.60;;;;;;5042951;28;20029;-76
2023/06/17 12:25:32;;;;;;;10.10;5.22;;;32.50;27.90;;;;;;5036431;28;20029;-75
2023/06/17 12:27:58;;;;;;;8.00;4.28;;;32.40;28.20;;;;;;5038810;28;20509;-75
2023/06/17 12:30:24;;;;;;;8.63;4.72;;;32.00;27.80;;;;;;5035955;28;20036;-76
2023/06/17 12:32:50;;;;;;;9.50;4.68;;;31.80;27.90;;;;;;5037969;28;20040;-75
2023/06/17 12:35:17;;;;;;;6.93;4.28;;;31.80;28.30;;;;;;5042252;28;20056;-76